Burgos, Spain

3:56 PM CEST en Abril 26, 2017 (GMT +0200)
Illera | | Change Station

Alt 2851 ft 42.35 °N, 3.69 °W | Updated 4 seconds ago

Muy nublado
Muy nublado
48.7 ° F
Sensación térmica 49 ° F
N
0.0
Viento Variable Viento desde Sur
Gusts 2.0 mph

Hoy
Alta -- | Baja -- ° F
--% Posibilidad de precipitaciones
Ayer
Alta -- | Baja -- ° F
Precip. -- pul
Presión 29.89 pul
Visibilidad 6.2 Millas
Nubes Muy nublado 1300 ft
Muy nublado 4000 ft
Vientos helados 49 ° F
Punto de rocío 38 ° F
Humedad 66%
Precipitaciones 0.00 pul
Espesor de la nieve No disponible.
7:17 AM 9:09 PM
Luna nueva, 0% visible
METAR LEBG 261330Z 02018KT 350V050 9999 BKN013 BKN040 05/01 Q1012
Presión 29.89 pul
Visibilidad 6.2 Millas
Nubes Muy nublado 1300 ft
Muy nublado 4000 ft
Vientos helados 49 ° F
Punto de rocío 38 ° F
Humedad 66%
Precipitaciones 0.00 pul
Espesor de la nieve No disponible.
7:17 AM 9:09 PM
Luna nueva, 0% visible
METAR LEBG 261330Z 02018KT 350V050 9999 BKN013 BKN040 05/01 Q1012

Get Severe Weather Alerts

Thanks for signing up!

Be on the lookout for a verification email in your inbox.

You'll start receiving the daily forecast at 8 AM.

×

10-Day Weather Forecast

×

Almanac

Astronomía

Apr. 26, 2017 Salida Puesta
Hora real
Crepúsculo civil
Crepúsculo náutico
Crepúsculo astronómico
Luna
Horas de luz
Horas de luz
Tomorrow will be .
, % of the Moon is Illuminated

Extremos de hoy

Máximos del país Bajas del país

Community

WunderPhotos

WunderBlog® & News

Nearby

Calidad del aire

  Calidad del aire Índice AQ Contaminante
Not available.

Grosos de nieve

Estación Profundido Altura

Actividad de terremotos

Ciudad Distance Mag. Tiempo y dato
Magnitud mínima muestra es 2,5.

Temperaturas de aguas costeras

Lugar Temperatura

Stations

Estaciones meteorológicas cercanas

Ubicación de la estación Temp. Vientos helados Punto de rocío Humedad Viento Precip. Alt Actualizado Tipo